Time;durP1;ratioP1;P1;durP2;ratioP2;P2;SDS_P1;SDS_P2;PMS_P1;PMS_P2;Temp;Humidity;BMP_temperature;BMP_pressure;BME280_temperature;BME280_humidity;BME280_pressure;Samples;Min_cycle;Max_cycle;Signal;HPM_P1;HPM_P2
2022/06/22 00:01:31;;;;;;;3.47;2.20;;;16.50;99.90;;;;;;5088957;28;20212;-52
2022/06/22 00:04:02;;;;;;;3.45;2.47;;;16.50;99.90;;;;;;5089389;28;20242;-52
2022/06/22 00:06:37;;;;;;;2.40;2.20;;;16.50;99.90;;;;;;5089597;28;20235;-52
2022/06/22 00:09:06;;;;;;;2.40;2.10;;;16.60;99.90;;;;;;5089400;28;20251;-53
2022/06/22 00:11:36;;;;;;;4.38;2.30;;;16.60;99.90;;;;;;5089927;28;20235;-52
2022/06/22 00:14:05;;;;;;;3.10;2.20;;;16.60;99.90;;;;;;5089597;28;20337;-52
2022/06/22 00:16:36;;;;;;;3.63;2.20;;;16.60;99.90;;;;;;5089747;28;20273;-53
2022/06/22 00:19:21;;;;;;;2.67;2.10;;;16.60;99.90;;;;;;5088876;28;20240;-52
2022/06/22 00:21:50;;;;;;;4.32;2.20;;;16.60;99.90;;;;;;5089733;28;20224;-53
2022/06/22 00:24:41;;;;;;;4.90;2.38;;;16.70;99.90;;;;;;5089288;28;20243;-52
2022/06/22 00:27:22;;;;;;;2.88;2.25;;;16.70;99.90;;;;;;5078588;28;20235;-52
2022/06/22 00:30:15;;;;;;;2.67;2.10;;;16.70;99.90;;;;;;5088981;28;20233;-53
2022/06/22 00:32:55;;;;;;;2.30;2.10;;;16.70;99.90;;;;;;5086047;28;20258;-52
2022/06/22 00:35:45;;;;;;;3.00;2.15;;;16.60;99.90;;;;;;5092018;28;20200;-52
2022/06/22 00:38:16;;;;;;;2.58;2.20;;;16.60;99.90;;;;;;5089456;28;20278;-52
2022/06/22 00:40:45;;;;;;;4.00;2.08;;;16.60;99.90;;;;;;5089605;28;20299;-53
2022/06/22 00:43:15;;;;;;;7.47;2.45;;;16.50;99.90;;;;;;5089293;28;20631;-52
2022/06/22 00:45:44;;;;;;;2.00;1.90;;;16.50;99.90;;;;;;5089798;28;20235;-53
2022/06/22 00:48:23;;;;;;;4.00;2.20;;;16.50;99.90;;;;;;5093172;28;20286;-53
2022/06/22 00:50:59;;;;;;;1.85;1.75;;;16.50;99.90;;;;;;5093911;28;20238;-52
2022/06/22 00:53:36;;;;;;;5.60;2.30;;;16.40;99.90;;;;;;5092669;28;20261;-52
2022/06/22 00:56:19;;;;;;;3.03;2.25;;;16.40;99.90;;;;;;5093461;28;20242;-52
2022/06/22 00:58:56;;;;;;;3.08;2.63;;;16.40;99.90;;;;;;5093210;28;20283;-52
2022/06/22 01:01:33;;;;;;;2.85;2.60;;;16.40;99.90;;;;;;5093270;28;20212;-52
2022/06/22 01:04:06;;;;;;;5.57;2.63;;;16.40;99.90;;;;;;5093017;28;20208;-52
2022/06/22 01:06:44;;;;;;;5.97;2.70;;;16.30;99.90;;;;;;5093224;28;20911;-52
2022/06/22 01:09:20;;;;;;;2.97;2.60;;;16.20;99.90;;;;;;5092832;28;20232;-53
2022/06/22 01:14:46;;;;;;;7.40;2.72;;;16.10;99.90;;;;;;5092465;28;20208;-53
2022/06/22 01:17:21;;;;;;;2.78;2.40;;;16.10;99.90;;;;;;5092539;28;20662;-52
2022/06/22 01:19:56;;;;;;;2.83;2.20;;;16.10;99.90;;;;;;5092717;28;20204;-52
2022/06/22 01:22:42;;;;;;;3.35;2.20;;;16.00;99.90;;;;;;5092878;28;20208;-53
2022/06/22 01:25:26;;;;;;;2.45;2.20;;;16.10;99.90;;;;;;5084368;28;20239;-52
2022/06/22 01:27:55;;;;;;;3.10;2.28;;;16.00;99.90;;;;;;5093020;28;20317;-52
2022/06/22 01:30:30;;;;;;;5.10;3.10;;;16.00;99.90;;;;;;5092160;28;20337;-52
2022/06/22 01:33:00;;;;;;;3.60;2.47;;;15.90;99.90;;;;;;5080512;28;20203;-53
2022/06/22 01:35:32;;;;;;;4.07;2.80;;;15.80;99.90;;;;;;5090074;28;20220;-52
2022/06/22 01:38:12;;;;;;;5.25;2.80;;;15.80;99.90;;;;;;5091545;28;20708;-53
2022/06/22 01:40:46;;;;;;;2.90;2.70;;;15.70;99.90;;;;;;5092516;28;20259;-53
2022/06/22 01:43:23;;;;;;;4.35;2.80;;;15.60;99.90;;;;;;5091814;28;20743;-52
2022/06/22 01:45:59;;;;;;;3.97;2.65;;;15.60;99.90;;;;;;5092474;28;20249;-53
2022/06/22 01:48:34;;;;;;;2.97;2.60;;;15.60;99.90;;;;;;5091869;28;20311;-52
2022/06/22 01:51:09;;;;;;;3.45;2.75;;;15.50;99.90;;;;;;5092457;28;20242;-53
2022/06/22 01:53:43;;;;;;;3.38;2.53;;;15.50;99.90;;;;;;5090866;28;20204;-52
2022/06/22 01:56:18;;;;;;;3.85;2.78;;;15.50;99.90;;;;;;5078485;28;20231;-52
2022/06/22 01:58:59;;;;;;;4.38;2.80;;;15.40;99.90;;;;;;5090919;28;20969;-53
2022/06/22 02:01:31;;;;;;;3.20;2.38;;;15.30;99.90;;;;;;5092011;28;20212;-53
2022/06/22 02:04:17;;;;;;;3.13;2.25;;;15.30;99.90;;;;;;5090974;28;20311;-52
2022/06/22 02:10:03;;;;;;;2.85;2.33;;;15.20;99.90;;;;;;5091257;28;20786;-53
2022/06/22 02:12:38;;;;;;;5.60;2.80;;;15.10;99.90;;;;;;5091485;28;20243;-53
2022/06/22 02:15:17;;;;;;;2.53;2.33;;;15.10;99.90;;;;;;5091444;28;20203;-52
2022/06/22 02:17:46;;;;;;;3.00;2.30;;;15.10;99.90;;;;;;5091082;28;20236;-52
2022/06/22 02:20:29;;;;;;;4.13;2.37;;;15.10;99.90;;;;;;5091554;28;20204;-53
2022/06/22 02:23:08;;;;;;;3.63;2.43;;;15.10;99.90;;;;;;5090050;28;20711;-52
2022/06/22 02:25:42;;;;;;;3.43;2.43;;;15.10;99.90;;;;;;5091046;28;20253;-52
2022/06/22 02:28:10;;;;;;;4.53;2.47;;;15.00;99.90;;;;;;5091145;28;20219;-52
2022/06/22 02:30:41;;;;;;;2.95;2.65;;;15.00;99.90;;;;;;5090708;28;20576;-53
2022/06/22 02:33:10;;;;;;;6.63;3.10;;;14.90;99.90;;;;;;5077646;28;20209;-52
2022/06/22 02:35:40;;;;;;;4.00;2.53;;;14.80;99.90;;;;;;5089987;28;20208;-52
2022/06/22 02:38:11;;;;;;;5.97;3.00;;;14.80;99.90;;;;;;5090998;28;20321;-52
2022/06/22 02:46:23;;;;;;;3.10;2.80;;;14.70;99.90;;;;;;5090918;28;20208;-52
2022/06/22 02:48:55;;;;;;;3.53;2.80;;;14.60;99.90;;;;;;5090648;28;20246;-52
2022/06/22 02:51:26;;;;;;;4.97;3.00;;;14.60;99.90;;;;;;5091407;28;20204;-52
2022/06/22 02:53:58;;;;;;;5.47;2.80;;;14.60;99.90;;;;;;5089957;28;20619;-52
2022/06/22 02:56:31;;;;;;;2.97;2.60;;;14.50;99.90;;;;;;5091204;28;20255;-53
2022/06/22 02:58:59;;;;;;;2.73;2.53;;;14.50;99.90;;;;;;5090524;28;20297;-52
2022/06/22 03:01:31;;;;;;;5.50;3.20;;;14.50;99.90;;;;;;5085276;28;20224;-52
2022/06/22 03:04:04;;;;;;;3.33;2.60;;;14.40;99.90;;;;;;5090868;28;20212;-52
2022/06/22 03:06:36;;;;;;;3.83;2.63;;;14.40;99.90;;;;;;5076474;28;20212;-52
2022/06/22 03:09:06;;;;;;;3.90;2.72;;;14.30;99.90;;;;;;5088752;28;20297;-52
2022/06/22 03:11:38;;;;;;;2.90;2.70;;;14.30;99.90;;;;;;5077992;28;20228;-52
2022/06/22 03:14:16;;;;;;;3.40;2.83;;;14.30;99.90;;;;;;5090798;28;20212;-53
2022/06/22 03:16:50;;;;;;;5.70;3.20;;;14.20;99.90;;;;;;5089938;28;20256;-53
2022/06/22 03:19:23;;;;;;;3.90;3.00;;;14.20;99.90;;;;;;5075931;28;20640;-53
2022/06/22 03:21:51;;;;;;;3.90;3.30;;;14.20;99.90;;;;;;5089804;28;20311;-52
2022/06/22 03:24:31;;;;;;;4.60;2.90;;;14.10;99.90;;;;;;5089434;28;20236;-52
2022/06/22 03:27:04;;;;;;;6.80;2.97;;;14.10;99.90;;;;;;5089952;28;20261;-52
2022/06/22 03:29:36;;;;;;;3.47;2.87;;;14.00;99.90;;;;;;5090016;28;20224;-52
2022/06/22 03:32:09;;;;;;;5.20;2.97;;;14.00;99.90;;;;;;5089664;28;20240;-52
2022/06/22 03:34:42;;;;;;;3.73;3.13;;;14.00;99.90;;;;;;5088884;28;20204;-52
2022/06/22 03:37:15;;;;;;;4.77;3.10;;;14.00;99.90;;;;;;5077956;28;20201;-52
2022/06/22 03:39:47;;;;;;;5.60;3.43;;;14.00;99.90;;;;;;5091879;28;20232;-52
2022/06/22 03:42:22;;;;;;;3.97;3.20;;;14.10;99.90;;;;;;5091902;28;20274;-53
2022/06/22 03:44:54;;;;;;;3.83;3.00;;;14.10;99.90;;;;;;5089999;28;20211;-52
2022/06/22 03:47:29;;;;;;;3.90;3.00;;;14.10;99.90;;;;;;5089907;28;20224;-52
2022/06/22 03:50:03;;;;;;;5.33;3.27;;;14.10;99.90;;;;;;5089627;28;20211;-52
2022/06/22 03:52:39;;;;;;;4.37;3.00;;;14.20;99.90;;;;;;5089604;28;20257;-52
2022/06/22 03:55:11;;;;;;;3.77;3.00;;;14.20;99.90;;;;;;5089596;28;20296;-52
2022/06/22 03:57:43;;;;;;;4.70;3.20;;;14.30;99.90;;;;;;5089752;28;20205;-53
2022/06/22 04:00:13;;;;;;;3.50;2.80;;;14.30;99.90;;;;;;5089827;28;20243;-53
2022/06/22 04:02:43;;;;;;;5.53;3.13;;;14.40;99.90;;;;;;5089442;28;20244;-53
2022/06/22 04:05:16;;;;;;;4.50;2.83;;;14.50;99.90;;;;;;5089996;28;20639;-53
2022/06/22 04:07:46;;;;;;;4.40;2.97;;;14.60;99.90;;;;;;5089272;28;20256;-53
2022/06/22 04:10:32;;;;;;;6.10;3.03;;;14.60;99.90;;;;;;5076259;28;20240;-52
2022/06/22 04:13:06;;;;;;;4.22;2.88;;;14.80;99.90;;;;;;5077364;28;20200;-53
2022/06/22 04:15:39;;;;;;;4.60;3.50;;;15.80;99.90;;;;;;5089937;28;20277;-53
2022/06/22 04:18:16;;;;;;;3.75;2.83;;;16.80;99.90;;;;;;5088916;28;20259;-53
2022/06/22 04:20:52;;;;;;;3.17;2.88;;;17.50;99.90;;;;;;5089727;28;20257;-52
2022/06/22 04:23:29;;;;;;;2.80;2.60;;;17.70;99.90;;;;;;5088956;28;20216;-52
2022/06/22 04:26:02;;;;;;;4.65;2.80;;;17.90;99.90;;;;;;5089868;28;20232;-52
2022/06/22 04:28:36;;;;;;;3.85;2.70;;;18.00;99.90;;;;;;5089060;28;20231;-52
2022/06/22 04:31:08;;;;;;;6.38;2.90;;;17.70;99.90;;;;;;5089135;28;20236;-52
2022/06/22 04:33:45;;;;;;;5.63;2.92;;;17.70;99.90;;;;;;5089416;28;20719;-51
2022/06/22 04:36:17;;;;;;;3.42;2.50;;;17.50;99.90;;;;;;5089609;28;20208;-51
2022/06/22 04:38:52;;;;;;;3.50;2.40;;;17.20;99.90;;;;;;5088975;28;20259;-51
2022/06/22 04:41:26;;;;;;;3.88;2.50;;;17.30;99.90;;;;;;5088840;28;20204;-51
2022/06/22 04:43:56;;;;;;;2.70;2.33;;;17.20;99.90;;;;;;5089476;28;20628;-52
2022/06/22 04:46:29;;;;;;;4.68;2.60;;;17.40;99.90;;;;;;5088734;28;20230;-51
2022/06/22 04:49:03;;;;;;;3.15;2.50;;;18.00;99.90;;;;;;5089609;28;20277;-52
2022/06/22 04:51:35;;;;;;;3.90;2.38;;;18.30;99.90;;;;;;5089295;28;20231;-52
2022/06/22 04:54:12;;;;;;;3.97;2.30;;;18.60;99.90;;;;;;5088595;28;20208;-52
2022/06/22 04:56:45;;;;;;;2.85;2.47;;;19.50;99.90;;;;;;5089230;28;20200;-52
2022/06/22 04:59:16;;;;;;;5.60;2.20;;;20.10;99.90;;;;;;5081079;28;20728;-52
2022/06/22 05:01:48;;;;;;;3.88;2.53;;;20.60;99.90;;;;;;5085178;28;20200;-53
2022/06/22 05:04:21;;;;;;;3.10;2.13;;;21.10;99.90;;;;;;5079508;28;20201;-53
2022/06/22 05:06:58;;;;;;;3.75;2.50;;;21.50;99.90;;;;;;5085869;28;20208;-52
2022/06/22 05:09:32;;;;;;;3.75;2.60;;;21.50;99.90;;;;;;5072382;28;20220;-52
2022/06/22 05:12:02;;;;;;;3.10;2.47;;;21.50;99.90;;;;;;5081867;28;20232;-52
2022/06/22 05:14:33;;;;;;;3.45;2.28;;;21.70;99.90;;;;;;5088602;28;20197;-53
2022/06/22 05:17:05;;;;;;;3.00;2.30;;;22.00;99.90;;;;;;5088585;28;20220;-53
2022/06/22 05:19:43;;;;;;;3.67;2.28;;;22.50;99.90;;;;;;5088575;28;20228;-52
2022/06/22 05:22:14;;;;;;;3.40;2.22;;;23.00;99.90;;;;;;5088333;28;20232;-52
2022/06/22 05:24:45;;;;;;;2.88;1.80;;;23.30;99.90;;;;;;5088618;28;20200;-53
2022/06/22 05:27:22;;;;;;;3.05;1.90;;;23.60;99.90;;;;;;5088415;28;20254;-52
2022/06/22 05:29:55;;;;;;;3.40;1.90;;;23.70;99.90;;;;;;5074501;28;20235;-53
2022/06/22 05:32:30;;;;;;;5.60;2.00;;;24.10;99.90;;;;;;5088232;28;20677;-50
2022/06/22 05:35:02;;;;;;;2.72;2.05;;;23.90;99.90;;;;;;5092733;28;20692;-49
2022/06/22 05:37:35;;;;;;;4.35;1.95;;;23.50;99.90;;;;;;5091084;28;20204;-51
2022/06/22 05:40:05;;;;;;;4.53;2.17;;;22.90;99.90;;;;;;5092598;28;20748;-52
2022/06/22 05:42:34;;;;;;;3.13;2.03;;;22.60;99.90;;;;;;5092087;28;20266;-52
2022/06/22 05:45:03;;;;;;;4.78;1.92;;;22.60;99.90;;;;;;5092518;28;20237;-52
2022/06/22 05:47:33;;;;;;;3.80;2.08;;;22.90;99.90;;;;;;5092197;28;20673;-49
2022/06/22 05:50:08;;;;;;;2.53;2.30;;;23.00;99.90;;;;;;5092518;28;20229;-52
2022/06/22 05:52:42;;;;;;;4.57;2.10;;;23.20;99.90;;;;;;5091911;28;20249;-52
2022/06/22 05:55:17;;;;;;;3.65;2.25;;;23.40;99.90;;;;;;5091629;28;20975;-53
2022/06/22 05:57:51;;;;;;;2.85;1.92;;;24.10;99.90;;;;;;5092475;28;20253;-53
2022/06/22 06:00:24;;;;;;;2.47;2.00;;;24.50;99.90;;;;;;5090935;28;20677;-53
2022/06/22 06:03:01;;;;;;;5.40;2.30;;;24.50;99.90;;;;;;5091685;28;20267;-53
2022/06/22 06:05:36;;;;;;;3.72;2.30;;;24.30;99.90;;;;;;5091846;28;20215;-52
2022/06/22 06:08:09;;;;;;;5.10;2.25;;;24.60;99.90;;;;;;5080734;28;20653;-53
2022/06/22 06:10:40;;;;;;;2.92;2.10;;;25.10;99.90;;;;;;5073683;28;20213;-53
2022/06/22 06:13:16;;;;;;;4.13;2.33;;;25.10;99.90;;;;;;5091462;28;20584;-53
2022/06/22 06:15:46;;;;;;;3.08;2.03;;;25.70;99.90;;;;;;5109130;28;20203;-53
2022/06/22 06:18:17;;;;;;;5.03;2.30;;;25.80;99.90;;;;;;5104102;28;20267;-53
2022/06/22 06:20:50;;;;;;;3.60;2.55;;;26.10;99.90;;;;;;5112215;28;20664;-53
2022/06/22 06:23:22;;;;;;;3.95;1.92;;;26.20;99.90;;;;;;5102159;28;20929;-52
2022/06/22 06:28:45;;;;;;;4.20;2.20;;;25.70;99.90;;;;;;5110829;28;20276;-53
2022/06/22 06:31:22;;;;;;;3.03;2.22;;;25.60;99.90;;;;;;5111714;28;20295;-53
2022/06/22 06:33:51;;;;;;;2.42;1.77;;;26.00;99.90;;;;;;5111479;28;20217;-53
2022/06/22 06:36:26;;;;;;;3.63;2.10;;;26.10;99.90;;;;;;5110982;28;20226;-53
2022/06/22 06:38:59;;;;;;;6.00;2.20;;;26.10;99.90;;;;;;5099626;28;20277;-53
2022/06/22 06:41:34;;;;;;;3.75;2.00;;;26.10;99.90;;;;;;5109348;28;20830;-53
2022/06/22 06:44:04;;;;;;;3.63;2.03;;;26.10;99.90;;;;;;5111003;28;20243;-53
2022/06/22 06:46:38;;;;;;;4.18;2.03;;;26.00;99.90;;;;;;5110690;28;20257;-53
2022/06/22 06:49:13;;;;;;;3.20;1.98;;;26.10;99.90;;;;;;5102455;28;20228;-53
2022/06/22 06:51:50;;;;;;;4.35;2.20;;;26.10;99.90;;;;;;5110781;28;20207;-53
2022/06/22 06:54:22;;;;;;;3.75;2.20;;;25.90;99.90;;;;;;5111660;28;20221;-53
2022/06/22 06:56:59;;;;;;;3.92;2.17;;;25.80;99.90;;;;;;5097228;28;20204;-49
2022/06/22 06:59:30;;;;;;;2.22;1.80;;;25.90;99.90;;;;;;5092154;28;20257;-49
2022/06/22 07:02:04;;;;;;;2.75;1.95;;;26.10;99.90;;;;;;5094273;28;20204;-50
2022/06/22 07:04:36;;;;;;;1.88;1.70;;;26.20;99.90;;;;;;5101995;28;20227;-50
2022/06/22 07:07:16;;;;;;;3.40;2.28;;;26.20;99.90;;;;;;5110688;28;20215;-50
2022/06/22 07:09:48;;;;;;;3.67;2.30;;;26.30;99.90;;;;;;5092036;28;20228;-50
2022/06/22 07:12:24;;;;;;;2.58;2.03;;;27.00;99.90;;;;;;5085993;28;20210;-50
2022/06/22 07:14:53;;;;;;;2.90;1.60;;;27.30;99.80;;;;;;5090144;28;20200;-50
2022/06/22 07:17:24;;;;;;;2.40;1.75;;;27.60;98.40;;;;;;5090333;28;20688;-51
2022/06/22 07:19:56;;;;;;;2.10;1.60;;;28.10;95.80;;;;;;5090542;28;20237;-50
2022/06/22 07:22:38;;;;;;;2.28;1.42;;;28.20;94.80;;;;;;5088879;28;20775;-50
2022/06/22 07:25:13;;;;;;;3.15;1.60;;;28.10;92.10;;;;;;5090557;28;20281;-50
2022/06/22 07:27:47;;;;;;;2.63;1.38;;;27.90;92.60;;;;;;5088814;28;20208;-50
2022/06/22 07:30:23;;;;;;;1.60;1.20;;;28.00;92.10;;;;;;5091111;28;20200;-50
2022/06/22 07:32:58;;;;;;;1.83;1.02;;;28.10;90.90;;;;;;5089392;28;20204;-50
2022/06/22 07:35:31;;;;;;;3.63;1.70;;;27.60;91.10;;;;;;5090675;28;20216;-50
2022/06/22 07:38:08;;;;;;;4.68;1.70;;;27.20;90.80;;;;;;5089321;28;20232;-49
2022/06/22 07:40:38;;;;;;;3.35;1.70;;;26.50;91.80;;;;;;5090229;28;20200;-50
2022/06/22 07:43:10;;;;;;;2.45;1.50;;;25.80;92.20;;;;;;5084757;28;20200;-51
2022/06/22 07:45:38;;;;;;;3.95;1.40;;;25.50;92.40;;;;;;5084889;28;20204;-50
2022/06/22 07:48:17;;;;;;;3.22;1.50;;;25.50;93.00;;;;;;5089597;28;20230;-50
2022/06/22 07:50:50;;;;;;;3.03;1.55;;;25.40;93.20;;;;;;5088323;28;20680;-50
2022/06/22 07:53:30;;;;;;;2.33;1.70;;;25.60;93.00;;;;;;5088034;28;20256;-50
2022/06/22 07:56:02;;;;;;;1.95;1.63;;;25.70;93.00;;;;;;5088780;28;20258;-50
2022/06/22 07:58:36;;;;;;;2.42;1.50;;;25.90;93.00;;;;;;5089890;28;20263;-50
2022/06/22 08:01:10;;;;;;;2.63;1.73;;;26.20;92.70;;;;;;5089682;28;20229;-50
2022/06/22 08:03:42;;;;;;;2.30;1.70;;;26.80;92.30;;;;;;5088017;28;20228;-50
2022/06/22 08:06:17;;;;;;;3.55;1.48;;;27.30;94.00;;;;;;5089594;28;20244;-50
2022/06/22 08:08:53;;;;;;;1.40;1.30;;;27.70;93.50;;;;;;5088204;28;20254;-50
2022/06/22 08:11:28;;;;;;;3.60;1.65;;;27.70;92.50;;;;;;5077765;28;20215;-50
2022/06/22 08:14:07;;;;;;;2.70;1.70;;;27.30;90.60;;;;;;5089477;28;20203;-50
2022/06/22 08:16:37;;;;;;;2.83;1.30;;;26.90;90.80;;;;;;5088980;28;20201;-50
2022/06/22 08:19:06;;;;;;;1.98;1.52;;;26.70;90.80;;;;;;5089399;28;20274;-50
2022/06/22 08:21:41;;;;;;;2.50;1.60;;;26.60;91.00;;;;;;5089455;28;20252;-50
2022/06/22 08:24:13;;;;;;;1.88;1.73;;;26.40;90.00;;;;;;5089044;28;20605;-50
2022/06/22 08:26:42;;;;;;;2.03;1.48;;;26.40;91.10;;;;;;5088815;28;20675;-50
2022/06/22 08:29:11;;;;;;;2.88;1.35;;;26.40;91.10;;;;;;5088151;28;20263;-50
2022/06/22 08:31:46;;;;;;;1.73;1.30;;;26.50;92.00;;;;;;5088991;28;20345;-51
2022/06/22 08:34:37;;;;;;;2.00;1.48;;;26.50;90.00;;;;;;5081459;28;20291;-51
2022/06/22 08:37:08;;;;;;;3.38;1.70;;;26.30;90.90;;;;;;5087801;28;20738;-50
2022/06/22 08:39:43;;;;;;;1.75;1.40;;;26.20;90.70;;;;;;5088277;28;20777;-50
2022/06/22 08:42:22;;;;;;;2.75;1.60;;;26.10;91.50;;;;;;5089414;28;20203;-50
2022/06/22 08:45:09;;;;;;;2.95;1.60;;;26.00;90.20;;;;;;5088383;28;20223;-50
2022/06/22 08:48:15;;;;;;;1.70;1.30;;;25.80;89.30;;;;;;5088802;28;20625;-50
2022/06/22 08:51:22;;;;;;;3.28;1.70;;;25.80;91.00;;;;;;5055977;28;20215;-49
2022/06/22 08:54:24;;;;;;;3.67;1.73;;;25.70;90.20;;;;;;5076830;28;20204;-50
2022/06/22 08:57:02;;;;;;;2.42;1.45;;;25.80;90.50;;;;;;5089408;28;20220;-50
2022/06/22 08:59:56;;;;;;;2.42;1.55;;;25.90;90.00;;;;;;5089500;28;20259;-50
2022/06/22 09:02:47;;;;;;;4.88;1.85;;;26.00;88.20;;;;;;5068603;28;20255;-50
2022/06/22 09:05:38;;;;;;;3.78;1.75;;;25.80;88.30;;;;;;5087978;28;20228;-50
2022/06/22 09:08:26;;;;;;;1.75;1.48;;;25.80;88.70;;;;;;5089256;28;20256;-50
2022/06/22 09:11:07;;;;;;;1.58;1.45;;;26.00;91.00;;;;;;5078445;28;20232;-50
2022/06/22 09:14:14;;;;;;;1.77;1.25;;;26.20;91.30;;;;;;5091587;28;20238;-50
2022/06/22 09:17:09;;;;;;;2.75;1.90;;;26.30;84.60;;;;;;5059417;28;20235;-50
2022/06/22 09:19:59;;;;;;;2.72;1.70;;;26.10;88.40;;;;;;5092668;28;20277;-50
2022/06/22 09:22:39;;;;;;;1.90;1.50;;;26.10;86.00;;;;;;5092336;28;20227;-50
2022/06/22 09:25:20;;;;;;;3.42;1.90;;;26.00;83.10;;;;;;5092901;28;20261;-50
2022/06/22 09:27:54;;;;;;;3.47;1.83;;;25.80;84.80;;;;;;5092154;28;20259;-50
2022/06/22 09:30:52;;;;;;;2.20;1.60;;;25.80;84.70;;;;;;5092314;28;20272;-50
2022/06/22 09:33:41;;;;;;;4.25;1.80;;;25.80;86.40;;;;;;5092411;28;20230;-50
2022/06/22 09:36:54;;;;;;;2.67;2.00;;;25.70;87.20;;;;;;5092090;28;20204;-50
2022/06/22 09:39:54;;;;;;;1.70;1.60;;;25.60;89.20;;;;;;4994240;28;20260;-50
2022/06/22 09:42:45;;;;;;;3.90;1.65;;;25.70;88.40;;;;;;5077215;28;20200;-50
2022/06/22 09:45:37;;;;;;;4.30;1.80;;;25.70;87.70;;;;;;5078892;28;20263;-50
2022/06/22 09:48:26;;;;;;;3.92;1.65;;;25.70;87.60;;;;;;5091974;28;20354;-50
2022/06/22 09:51:15;;;;;;;5.20;1.85;;;25.60;88.50;;;;;;5091784;28;20239;-50
2022/06/22 09:56:19;;;;;;;2.88;1.80;;;25.70;91.70;;;;;;5078915;28;20204;-50
2022/06/22 09:57:09;;;;;;;2.53;2.00;;;25.70;88.40;;;;;;5091359;28;20826;-50
2022/06/22 10:00:04;;;;;;;3.50;1.90;;;25.50;89.40;;;;;;5092149;28;20223;-50
2022/06/22 10:03:07;;;;;;;5.00;2.10;;;25.50;86.80;;;;;;5080083;28;20205;-50
2022/06/22 10:06:08;;;;;;;4.30;2.13;;;25.50;90.00;;;;;;5077356;28;20311;-50
2022/06/22 10:09:00;;;;;;;2.85;1.75;;;25.40;90.10;;;;;;5083596;28;20348;-50
2022/06/22 10:11:38;;;;;;;3.88;1.95;;;25.50;89.70;;;;;;5080684;28;20212;-50
2022/06/22 10:14:43;;;;;;;1.98;1.77;;;25.60;90.50;;;;;;5091498;28;20212;-50
2022/06/22 10:17:35;;;;;;;2.88;1.70;;;25.60;89.50;;;;;;5085445;28;20567;-51
2022/06/22 10:20:36;;;;;;;2.40;1.67;;;25.60;91.40;;;;;;5090071;28;20257;-50
2022/06/22 10:23:39;;;;;;;3.28;1.83;;;25.70;90.70;;;;;;5092340;28;20230;-49
2022/06/22 10:26:34;;;;;;;3.13;1.80;;;25.70;89.50;;;;;;5047094;28;20228;-49
2022/06/22 10:29:41;;;;;;;2.10;1.90;;;25.60;89.90;;;;;;5091782;28;20867;-50
2022/06/22 10:32:48;;;;;;;2.70;1.80;;;25.60;88.70;;;;;;5082496;28;20276;-50
2022/06/22 10:35:36;;;;;;;2.53;1.70;;;25.60;90.00;;;;;;5049821;28;20677;-50
2022/06/22 10:38:23;;;;;;;3.08;1.45;;;25.60;87.80;;;;;;5090996;28;20228;-52
2022/06/22 10:47:09;;;;;;;2.15;1.90;;;25.60;88.00;;;;;;5090286;28;20239;-52
2022/06/22 10:49:54;;;;;;;4.97;1.70;;;25.60;89.00;;;;;;5090697;28;20231;-53
2022/06/22 10:52:57;;;;;;;2.92;1.67;;;25.60;86.30;;;;;;5090043;28;20216;-53
2022/06/22 10:55:43;;;;;;;2.75;1.80;;;25.60;85.20;;;;;;5075414;28;20619;-53
2022/06/22 10:58:36;;;;;;;3.75;1.90;;;25.50;85.40;;;;;;5090468;28;20688;-52
2022/06/22 11:01:22;;;;;;;3.22;2.00;;;25.60;80.50;;;;;;5081199;28;20262;-53
2022/06/22 11:04:27;;;;;;;3.90;2.00;;;25.60;81.50;;;;;;5090195;28;20227;-53
2022/06/22 11:07:29;;;;;;;2.15;1.80;;;25.50;80.30;;;;;;5090239;28;20252;-53
2022/06/22 11:10:17;;;;;;;2.25;2.05;;;25.60;85.30;;;;;;5078693;28;20212;-52
2022/06/22 11:13:01;;;;;;;2.45;2.03;;;25.60;82.60;;;;;;5089601;28;20208;-52
2022/06/22 11:16:02;;;;;;;4.35;2.30;;;25.60;81.60;;;;;;5090065;28;20250;-52
2022/06/22 11:18:58;;;;;;;2.25;1.80;;;25.60;85.90;;;;;;5090341;28;20326;-53
2022/06/22 11:21:41;;;;;;;3.65;1.95;;;25.70;88.20;;;;;;5077766;28;20208;-52
2022/06/22 11:24:46;;;;;;;2.63;1.75;;;25.80;83.90;;;;;;5090468;28;20235;-52
2022/06/22 11:33:39;;;;;;;3.13;2.20;;;25.80;83.80;;;;;;5087917;28;20215;-50
2022/06/22 11:36:24;;;;;;;3.25;2.10;;;25.80;83.90;;;;;;5090003;28;20238;-52
2022/06/22 11:39:31;;;;;;;2.85;1.80;;;25.80;81.50;;;;;;5081778;28;20224;-51
2022/06/22 11:42:20;;;;;;;4.53;1.95;;;25.80;79.00;;;;;;5079451;28;20627;-52
2022/06/22 11:48:26;;;;;;;1.92;1.83;;;25.70;78.80;;;;;;5101904;28;20242;-52
2022/06/22 11:51:03;;;;;;;3.53;2.15;;;25.70;81.90;;;;;;5096663;28;20569;-52
2022/06/22 11:53:57;;;;;;;2.75;1.83;;;25.90;85.40;;;;;;5081106;28;20227;-53
2022/06/22 11:56:42;;;;;;;5.20;1.90;;;25.90;82.60;;;;;;5086966;28;20204;-52
2022/06/22 11:59:32;;;;;;;2.15;1.95;;;25.90;85.30;;;;;;5089047;28;20286;-52
2022/06/22 12:02:22;;;;;;;2.63;1.80;;;26.00;83.10;;;;;;5088243;28;20296;-52
2022/06/22 12:05:14;;;;;;;2.17;1.80;;;25.90;79.20;;;;;;5089359;28;20295;-52
2022/06/22 12:08:05;;;;;;;2.70;1.70;;;25.90;77.90;;;;;;5089005;28;20215;-52
2022/06/22 12:10:46;;;;;;;3.60;2.05;;;25.90;79.50;;;;;;5075008;28;20228;-53
2022/06/22 12:15:04;;;;;;;2.95;1.90;;;25.90;77.90;;;;;;5089600;28;20245;-52
2022/06/22 12:16:39;;;;;;;3.60;2.10;;;26.00;76.40;;;;;;5088458;28;20352;-52
2022/06/22 12:19:21;;;;;;;4.93;1.95;;;25.90;78.50;;;;;;5089508;28;20227;-52
2022/06/22 12:22:04;;;;;;;2.10;1.60;;;25.90;77.50;;;;;;5089398;28;20282;-52
2022/06/22 12:24:46;;;;;;;3.88;1.80;;;26.00;77.60;;;;;;5089141;28;20208;-52
2022/06/22 12:27:24;;;;;;;3.28;1.90;;;25.90;78.00;;;;;;5089425;28;20247;-52
2022/06/22 12:30:25;;;;;;;5.65;2.00;;;25.90;75.30;;;;;;5075774;28;20223;-51
2022/06/22 12:33:00;;;;;;;2.15;1.73;;;25.90;79.60;;;;;;5089086;28;20231;-51
2022/06/22 12:35:37;;;;;;;2.75;1.63;;;25.90;74.80;;;;;;5083566;28;20207;-52
2022/06/22 12:38:16;;;;;;;3.05;1.80;;;25.80;77.20;;;;;;5087094;28;20220;-52
2022/06/22 12:40:55;;;;;;;8.13;1.70;;;25.90;76.10;;;;;;5088465;28;20216;-52
2022/06/22 12:43:56;;;;;;;2.30;1.65;;;26.00;74.60;;;;;;5091344;28;20204;-51
2022/06/22 12:46:41;;;;;;;1.98;1.85;;;25.90;73.00;;;;;;5096757;28;20257;-51
2022/06/22 12:49:33;;;;;;;2.55;1.73;;;25.90;75.20;;;;;;5112437;28;20691;-52
2022/06/22 12:52:04;;;;;;;2.45;1.60;;;25.90;74.70;;;;;;5103549;28;20643;-52
2022/06/22 12:54:36;;;;;;;2.63;1.67;;;25.80;72.40;;;;;;5110716;28;20199;-52
2022/06/22 12:57:10;;;;;;;4.63;1.85;;;25.90;75.60;;;;;;5099187;28;20254;-52
2022/06/22 12:59:46;;;;;;;2.63;1.77;;;25.90;75.30;;;;;;5091317;28;20298;-51
2022/06/22 13:02:19;;;;;;;2.38;1.75;;;25.90;72.20;;;;;;5086908;28;20285;-52
2022/06/22 13:04:53;;;;;;;1.85;1.67;;;25.90;75.30;;;;;;5092747;28;20680;-52
2022/06/22 13:07:21;;;;;;;4.22;2.08;;;26.10;77.60;;;;;;5092888;28;20245;-52
2022/06/22 13:09:53;;;;;;;2.63;1.65;;;26.10;78.60;;;;;;5082589;28;20229;-52
2022/06/22 13:12:29;;;;;;;2.05;1.52;;;26.10;76.50;;;;;;5089349;28;20234;-52
2022/06/22 13:15:04;;;;;;;3.08;1.70;;;26.00;73.60;;;;;;5092720;28;20776;-51
2022/06/22 13:17:41;;;;;;;2.47;1.75;;;26.10;78.40;;;;;;5091866;28;20212;-51
2022/06/22 13:20:37;;;;;;;1.60;1.50;;;26.10;76.40;;;;;;5092929;28;20250;-51
2022/06/22 13:23:12;;;;;;;3.67;2.00;;;26.10;77.80;;;;;;5084980;28;20676;-52
2022/06/22 13:25:43;;;;;;;2.72;1.60;;;26.30;77.20;;;;;;5092572;28;20208;-51
2022/06/22 13:28:19;;;;;;;2.65;1.98;;;26.10;75.80;;;;;;5092579;28;20281;-51
2022/06/22 13:30:55;;;;;;;4.28;1.80;;;26.20;74.50;;;;;;5092262;28;20221;-51
2022/06/22 13:33:29;;;;;;;5.05;2.15;;;26.10;74.40;;;;;;5091846;28;20204;-51
2022/06/22 13:36:06;;;;;;;2.75;1.60;;;26.10;73.50;;;;;;5092819;28;20253;-51
2022/06/22 13:38:53;;;;;;;2.45;1.65;;;26.10;71.80;;;;;;5091355;28;20881;-51
2022/06/22 13:41:37;;;;;;;4.90;1.73;;;26.10;73.20;;;;;;5092817;28;20196;-51
2022/06/22 13:44:28;;;;;;;2.83;1.90;;;26.10;72.30;;;;;;5091580;28;20278;-52
2022/06/22 13:47:20;;;;;;;2.47;1.90;;;26.10;72.80;;;;;;5079290;28;20251;-52
2022/06/22 13:50:14;;;;;;;2.03;1.67;;;26.10;74.10;;;;;;5081033;28;20615;-51
2022/06/22 13:52:45;;;;;;;3.15;1.60;;;26.10;72.70;;;;;;5083819;28;20220;-52
2022/06/22 13:55:32;;;;;;;2.00;1.80;;;26.20;73.20;;;;;;5090952;28;20634;-51
2022/06/22 13:58:08;;;;;;;2.15;1.67;;;26.10;72.10;;;;;;5091558;28;20747;-52
2022/06/22 14:00:50;;;;;;;1.80;1.65;;;26.10;72.30;;;;;;5091405;28;20730;-51
2022/06/22 14:03:27;;;;;;;2.65;1.80;;;26.10;73.80;;;;;;5091398;28;20341;-52
2022/06/22 14:06:00;;;;;;;1.80;1.70;;;26.10;71.20;;;;;;5092074;28;20239;-52
2022/06/22 14:08:45;;;;;;;1.73;1.52;;;26.00;76.30;;;;;;5090784;28;20224;-52
2022/06/22 14:11:18;;;;;;;2.88;1.95;;;26.10;73.70;;;;;;5078721;28;20273;-52
2022/06/22 14:13:54;;;;;;;2.42;1.52;;;26.10;75.80;;;;;;5090721;28;20235;-51
2022/06/22 14:16:28;;;;;;;3.17;1.63;;;26.10;70.10;;;;;;5082203;28;20587;-52
2022/06/22 14:19:03;;;;;;;2.33;1.50;;;26.10;70.00;;;;;;5085884;28;20239;-52